sensor_id;sensor_type;location;lat;lon;timestamp;pressure;altitude;pressure_sealevel;temperature;humidity
9289;BME280;4683;50.864;12.086;2023-08-24T00:01:11;99446.63;;;19.00;100.00
9289;BME280;4683;50.864;12.086;2023-08-24T00:03:41;99452.78;;;19.00;100.00
9289;BME280;4683;50.864;12.086;2023-08-24T00:06:10;99449.06;;;19.01;100.00
9289;BME280;4683;50.864;12.086;2023-08-24T00:08:39;99447.88;;;18.97;100.00
9289;BME280;4683;50.864;12.086;2023-08-24T00:11:08;99450.19;;;18.94;100.00
9289;BME280;4683;50.864;12.086;2023-08-24T00:13:43;99452.66;;;18.95;100.00
9289;BME280;4683;50.864;12.086;2023-08-24T00:16:15;99455.34;;;18.95;100.00
9289;BME280;4683;50.864;12.086;2023-08-24T00:18:45;99454.50;;;18.95;100.00
9289;BME280;4683;50.864;12.086;2023-08-24T00:21:14;99457.41;;;18.93;100.00
9289;BME280;4683;50.864;12.086;2023-08-24T00:23:44;99456.38;;;18.94;100.00
9289;BME280;4683;50.864;12.086;2023-08-24T00:26:12;99451.22;;;18.93;100.00
9289;BME280;4683;50.864;12.086;2023-08-24T00:29:40;99451.06;;;18.76;100.00
9289;BME280;4683;50.864;12.086;2023-08-24T00:32:08;99442.81;;;18.78;100.00
9289;BME280;4683;50.864;12.086;2023-08-24T00:34:37;99444.53;;;18.72;100.00
9289;BME280;4683;50.864;12.086;2023-08-24T00:37:06;99443.50;;;18.66;100.00
9289;BME280;4683;50.864;12.086;2023-08-24T00:39:34;99439.69;;;18.62;100.00
9289;BME280;4683;50.864;12.086;2023-08-24T00:42:04;99434.38;;;18.56;100.00
9289;BME280;4683;50.864;12.086;2023-08-24T00:44:32;99443.88;;;18.51;100.00
9289;BME280;4683;50.864;12.086;2023-08-24T00:47:02;99431.81;;;18.49;100.00
9289;BME280;4683;50.864;12.086;2023-08-24T00:49:31;99443.31;;;18.49;100.00
9289;BME280;4683;50.864;12.086;2023-08-24T00:51:59;99435.66;;;18.53;100.00
9289;BME280;4683;50.864;12.086;2023-08-24T00:54:28;99436.47;;;18.54;100.00
9289;BME280;4683;50.864;12.086;2023-08-24T00:57:02;99444.69;;;18.52;100.00
9289;BME280;4683;50.864;12.086;2023-08-24T00:59:32;99436.91;;;18.50;100.00
9289;BME280;4683;50.864;12.086;2023-08-24T01:02:02;99436.09;;;18.50;100.00
9289;BME280;4683;50.864;12.086;2023-08-24T01:04:30;99437.97;;;18.49;100.00
9289;BME280;4683;50.864;12.086;2023-08-24T01:06:59;99444.56;;;18.47;100.00
9289;BME280;4683;50.864;12.086;2023-08-24T01:09:28;99440.25;;;18.46;100.00
9289;BME280;4683;50.864;12.086;2023-08-24T01:12:05;99439.88;;;18.42;100.00
9289;BME280;4683;50.864;12.086;2023-08-24T01:14:41;99445.06;;;18.37;100.00
9289;BME280;4683;50.864;12.086;2023-08-24T01:17:18;99451.91;;;18.33;100.00
9289;BME280;4683;50.864;12.086;2023-08-24T01:19:49;99453.53;;;18.34;100.00
9289;BME280;4683;50.864;12.086;2023-08-24T01:22:33;99445.59;;;18.28;100.00
9289;BME280;4683;50.864;12.086;2023-08-24T01:25:10;99436.91;;;18.32;100.00
9289;BME280;4683;50.864;12.086;2023-08-24T01:27:42;99435.06;;;18.33;100.00
9289;BME280;4683;50.864;12.086;2023-08-24T01:30:11;99434.66;;;18.29;100.00
9289;BME280;4683;50.864;12.086;2023-08-24T01:32:40;99445.81;;;18.26;100.00
9289;BME280;4683;50.864;12.086;2023-08-24T01:35:10;99428.75;;;18.27;100.00
9289;BME280;4683;50.864;12.086;2023-08-24T01:37:39;99436.31;;;18.30;100.00
9289;BME280;4683;50.864;12.086;2023-08-24T01:40:16;99432.38;;;18.33;100.00
9289;BME280;4683;50.864;12.086;2023-08-24T01:42:51;99433.81;;;18.35;100.00
9289;BME280;4683;50.864;12.086;2023-08-24T01:45:25;99421.69;;;18.33;100.00
9289;BME280;4683;50.864;12.086;2023-08-24T01:47:56;99421.94;;;18.31;100.00
9289;BME280;4683;50.864;12.086;2023-08-24T01:50:25;99425.28;;;18.27;100.00
9289;BME280;4683;50.864;12.086;2023-08-24T01:52:53;99427.41;;;18.18;100.00
9289;BME280;4683;50.864;12.086;2023-08-24T01:55:22;99427.47;;;18.11;100.00
9289;BME280;4683;50.864;12.086;2023-08-24T01:57:52;99425.03;;;18.10;100.00
9289;BME280;4683;50.864;12.086;2023-08-24T02:00:21;99424.44;;;18.08;100.00
9289;BME280;4683;50.864;12.086;2023-08-24T02:02:50;99416.44;;;18.08;100.00
9289;BME280;4683;50.864;12.086;2023-08-24T02:05:18;99419.69;;;18.10;100.00
9289;BME280;4683;50.864;12.086;2023-08-24T02:07:47;99422.56;;;18.08;100.00
9289;BME280;4683;50.864;12.086;2023-08-24T02:10:15;99422.34;;;18.10;100.00
9289;BME280;4683;50.864;12.086;2023-08-24T02:12:44;99415.59;;;18.07;100.00
9289;BME280;4683;50.864;12.086;2023-08-24T02:15:13;99409.28;;;18.02;100.00
9289;BME280;4683;50.864;12.086;2023-08-24T02:17:42;99411.56;;;17.98;100.00
9289;BME280;4683;50.864;12.086;2023-08-24T02:20:11;99407.50;;;17.95;100.00
9289;BME280;4683;50.864;12.086;2023-08-24T02:22:40;99405.88;;;17.94;100.00
9289;BME280;4683;50.864;12.086;2023-08-24T02:25:10;99399.69;;;17.94;100.00
9289;BME280;4683;50.864;12.086;2023-08-24T02:27:39;99391.69;;;17.94;100.00
9289;BME280;4683;50.864;12.086;2023-08-24T02:30:08;99395.78;;;17.96;100.00
9289;BME280;4683;50.864;12.086;2023-08-24T02:32:38;99394.16;;;17.95;100.00
9289;BME280;4683;50.864;12.086;2023-08-24T02:35:08;99394.16;;;17.95;100.00
9289;BME280;4683;50.864;12.086;2023-08-24T02:37:36;99390.88;;;17.93;100.00
9289;BME280;4683;50.864;12.086;2023-08-24T02:40:06;99395.63;;;17.91;100.00
9289;BME280;4683;50.864;12.086;2023-08-24T02:42:36;99396.66;;;17.90;100.00
9289;BME280;4683;50.864;12.086;2023-08-24T02:45:05;99392.56;;;17.88;100.00
9289;BME280;4683;50.864;12.086;2023-08-24T02:47:34;99392.94;;;17.91;100.00
9289;BME280;4683;50.864;12.086;2023-08-24T02:50:07;99394.19;;;17.89;100.00
9289;BME280;4683;50.864;12.086;2023-08-24T02:52:36;99398.53;;;17.90;100.00
9289;BME280;4683;50.864;12.086;2023-08-24T02:55:07;99392.34;;;17.89;100.00
9289;BME280;4683;50.864;12.086;2023-08-24T02:57:35;99384.19;;;17.84;100.00
9289;BME280;4683;50.864;12.086;2023-08-24T03:00:06;99398.13;;;17.86;100.00
9289;BME280;4683;50.864;12.086;2023-08-24T03:02:36;99392.94;;;17.91;100.00
9289;BME280;4683;50.864;12.086;2023-08-24T03:05:07;99390.06;;;17.93;100.00
9289;BME280;4683;50.864;12.086;2023-08-24T03:07:36;99391.91;;;17.92;100.00
9289;BME280;4683;50.864;12.086;2023-08-24T03:10:06;99391.53;;;17.89;100.00
9289;BME280;4683;50.864;12.086;2023-08-24T03:12:34;99388.31;;;17.80;100.00
9289;BME280;4683;50.864;12.086;2023-08-24T03:15:04;99391.66;;;17.75;100.00
9289;BME280;4683;50.864;12.086;2023-08-24T03:21:41;99392.56;;;17.63;100.00
9289;BME280;4683;50.864;12.086;2023-08-24T03:24:09;99382.25;;;17.66;100.00
9289;BME280;4683;50.864;12.086;2023-08-24T03:26:37;99385.16;;;17.65;100.00
9289;BME280;4683;50.864;12.086;2023-08-24T03:29:05;99386.78;;;17.66;100.00
9289;BME280;4683;50.864;12.086;2023-08-24T03:31:34;99390.06;;;17.68;100.00
9289;BME280;4683;50.864;12.086;2023-08-24T03:34:07;99385.31;;;17.70;100.00
9289;BME280;4683;50.864;12.086;2023-08-24T03:36:35;99386.94;;;17.71;100.00
9289;BME280;4683;50.864;12.086;2023-08-24T03:39:06;99385.94;;;17.72;100.00
9289;BME280;4683;50.864;12.086;2023-08-24T03:41:35;99376.88;;;17.73;100.00
9289;BME280;4683;50.864;12.086;2023-08-24T03:44:04;99373.28;;;17.61;100.00
9289;BME280;4683;50.864;12.086;2023-08-24T03:46:32;99372.56;;;17.47;100.00
9289;BME280;4683;50.864;12.086;2023-08-24T03:49:02;99368.59;;;17.56;100.00
9289;BME280;4683;50.864;12.086;2023-08-24T03:51:30;99368.41;;;17.58;100.00
9289;BME280;4683;50.864;12.086;2023-08-24T03:53:58;99371.66;;;17.60;100.00
9289;BME280;4683;50.864;12.086;2023-08-24T03:56:28;99370.84;;;17.59;100.00
9289;BME280;4683;50.864;12.086;2023-08-24T03:58:57;99375.13;;;17.60;100.00
9289;BME280;4683;50.864;12.086;2023-08-24T04:01:25;99377.81;;;17.60;100.00
9289;BME280;4683;50.864;12.086;2023-08-24T04:03:54;99373.09;;;17.62;100.00
9289;BME280;4683;50.864;12.086;2023-08-24T04:06:22;99374.31;;;17.60;100.00
9289;BME280;4683;50.864;12.086;2023-08-24T04:08:50;99376.41;;;17.58;100.00
9289;BME280;4683;50.864;12.086;2023-08-24T04:11:19;99374.31;;;17.60;100.00
9289;BME280;4683;50.864;12.086;2023-08-24T04:13:49;99380.69;;;17.59;100.00
9289;BME280;4683;50.864;12.086;2023-08-24T04:16:17;99380.09;;;17.57;100.00
9289;BME280;4683;50.864;12.086;2023-08-24T04:18:46;99385.88;;;17.54;100.00
9289;BME280;4683;50.864;12.086;2023-08-24T04:21:14;99385.09;;;17.21;100.00
9289;BME280;4683;50.864;12.086;2023-08-24T04:23:44;99384.31;;;17.08;100.00
9289;BME280;4683;50.864;12.086;2023-08-24T04:26:13;99385.13;;;17.15;100.00
9289;BME280;4683;50.864;12.086;2023-08-24T04:28:41;99383.34;;;17.34;100.00
9289;BME280;4683;50.864;12.086;2023-08-24T04:31:11;99385.31;;;17.45;100.00
9289;BME280;4683;50.864;12.086;2023-08-24T04:33:39;99392.44;;;17.51;100.00
9289;BME280;4683;50.864;12.086;2023-08-24T04:36:08;99396.47;;;17.60;100.00
9289;BME280;4683;50.864;12.086;2023-08-24T04:38:36;99394.19;;;17.64;100.00
9289;BME280;4683;50.864;12.086;2023-08-24T04:41:08;99393.13;;;17.71;100.00
9289;BME280;4683;50.864;12.086;2023-08-24T04:43:41;99391.66;;;17.75;100.00
9289;BME280;4683;50.864;12.086;2023-08-24T04:46:11;99380.31;;;17.80;100.00
9289;BME280;4683;50.864;12.086;2023-08-24T04:48:40;99375.91;;;17.92;100.00
9289;BME280;4683;50.864;12.086;2023-08-24T04:51:09;99380.53;;;18.04;100.00
9289;BME280;4683;50.864;12.086;2023-08-24T04:53:38;99382.16;;;18.23;100.00
9289;BME280;4683;50.864;12.086;2023-08-24T04:56:07;99386.44;;;18.42;100.00
9289;BME280;4683;50.864;12.086;2023-08-24T04:58:36;99387.47;;;18.60;100.00
9289;BME280;4683;50.864;12.086;2023-08-24T05:01:05;99393.25;;;18.57;100.00
9289;BME280;4683;50.864;12.086;2023-08-24T05:03:36;99386.22;;;18.44;100.00
9289;BME280;4683;50.864;12.086;2023-08-24T05:06:05;99381.72;;;18.26;100.00
9289;BME280;4683;50.864;12.086;2023-08-24T05:08:34;99382.88;;;18.30;100.00
9289;BME280;4683;50.864;12.086;2023-08-24T05:11:12;99380.81;;;18.32;100.00
9289;BME280;4683;50.864;12.086;2023-08-24T05:13:42;99381.78;;;18.19;100.00
9289;BME280;4683;50.864;12.086;2023-08-24T05:16:12;99384.69;;;18.18;100.00
9289;BME280;4683;50.864;12.086;2023-08-24T05:18:46;99378.28;;;18.00;100.00
9289;BME280;4683;50.864;12.086;2023-08-24T05:21:15;99383.31;;;17.90;100.00
9289;BME280;4683;50.864;12.086;2023-08-24T05:23:44;99384.50;;;17.94;100.00
9289;BME280;4683;50.864;12.086;2023-08-24T05:26:16;99370.00;;;18.09;100.00
9289;BME280;4683;50.864;12.086;2023-08-24T05:28:50;99373.63;;;18.14;100.00
9289;BME280;4683;50.864;12.086;2023-08-24T05:31:25;99370.06;;;18.20;100.00
9289;BME280;4683;50.864;12.086;2023-08-24T05:33:57;99376.28;;;18.33;100.00
9289;BME280;4683;50.864;12.086;2023-08-24T05:36:28;99375.38;;;18.39;100.00
9289;BME280;4683;50.864;12.086;2023-08-24T05:38:57;99376.03;;;18.52;100.00
9289;BME280;4683;50.864;12.086;2023-08-24T05:41:25;99375.16;;;18.59;100.00
9289;BME280;4683;50.864;12.086;2023-08-24T05:43:55;99387.16;;;18.86;100.00
9289;BME280;4683;50.864;12.086;2023-08-24T05:46:27;99383.41;;;19.06;100.00
9289;BME280;4683;50.864;12.086;2023-08-24T05:49:00;99384.97;;;19.25;100.00
9289;BME280;4683;50.864;12.086;2023-08-24T05:51:34;99383.84;;;19.44;100.00
9289;BME280;4683;50.864;12.086;2023-08-24T05:54:04;99387.81;;;19.54;100.00
9289;BME280;4683;50.864;12.086;2023-08-24T05:56:34;99384.47;;;19.70;100.00
9289;BME280;4683;50.864;12.086;2023-08-24T05:59:16;99383.22;;;19.72;100.00
9289;BME280;4683;50.864;12.086;2023-08-24T06:01:47;99383.44;;;19.94;100.00
9289;BME280;4683;50.864;12.086;2023-08-24T06:04:27;99391.47;;;19.83;100.00
9289;BME280;4683;50.864;12.086;2023-08-24T06:07:01;99380.63;;;19.89;100.00
9289;BME280;4683;50.864;12.086;2023-08-24T06:09:46;99378.41;;;20.21;100.00
9289;BME280;4683;50.864;12.086;2023-08-24T06:12:20;99376.66;;;20.15;100.00
9289;BME280;4683;50.864;12.086;2023-08-24T06:14:55;99385.75;;;20.02;100.00
9289;BME280;4683;50.864;12.086;2023-08-24T06:17:26;99372.59;;;19.89;100.00
9289;BME280;4683;50.864;12.086;2023-08-24T06:19:58;99369.25;;;19.82;100.00
9289;BME280;4683;50.864;12.086;2023-08-24T06:22:32;99367.38;;;19.94;100.00
9289;BME280;4683;50.864;12.086;2023-08-24T06:25:02;99353.16;;;20.06;100.00
9289;BME280;4683;50.864;12.086;2023-08-24T06:27:36;99347.44;;;20.14;100.00
9289;BME280;4683;50.864;12.086;2023-08-24T06:30:07;99336.28;;;20.45;100.00
9289;BME280;4683;50.864;12.086;2023-08-24T06:32:35;99339.28;;;20.61;100.00
9289;BME280;4683;50.864;12.086;2023-08-24T06:35:08;99344.19;;;20.64;100.00
9289;BME280;4683;50.864;12.086;2023-08-24T06:37:43;99356.41;;;20.71;100.00
9289;BME280;4683;50.864;12.086;2023-08-24T06:40:12;99358.25;;;20.71;100.00
9289;BME280;4683;50.864;12.086;2023-08-24T06:42:43;99362.56;;;20.72;100.00
9289;BME280;4683;50.864;12.086;2023-08-24T06:45:24;99360.84;;;20.94;100.00
9289;BME280;4683;50.864;12.086;2023-08-24T06:48:03;99357.94;;;21.13;100.00
9289;BME280;4683;50.864;12.086;2023-08-24T06:50:37;99363.16;;;21.19;100.00
9289;BME280;4683;50.864;12.086;2023-08-24T06:53:06;99352.13;;;21.33;100.00
9289;BME280;4683;50.864;12.086;2023-08-24T06:55:37;99357.66;;;21.60;100.00
9289;BME280;4683;50.864;12.086;2023-08-24T06:58:07;99363.09;;;21.65;100.00
9289;BME280;4683;50.864;12.086;2023-08-24T07:00:37;99371.66;;;21.62;100.00
9289;BME280;4683;50.864;12.086;2023-08-24T07:03:07;99370.59;;;21.63;100.00
9289;BME280;4683;50.864;12.086;2023-08-24T07:05:40;99381.09;;;21.81;100.00
9289;BME280;4683;50.864;12.086;2023-08-24T07:08:14;99371.38;;;21.97;100.00
9289;BME280;4683;50.864;12.086;2023-08-24T07:10:53;99382.56;;;22.27;100.00
9289;BME280;4683;50.864;12.086;2023-08-24T07:13:32;99376.19;;;22.56;100.00
9289;BME280;4683;50.864;12.086;2023-08-24T07:16:06;99377.84;;;22.62;100.00
9289;BME280;4683;50.864;12.086;2023-08-24T07:18:37;99371.34;;;22.79;100.00
9289;BME280;4683;50.864;12.086;2023-08-24T07:21:10;99358.13;;;23.00;100.00
9289;BME280;4683;50.864;12.086;2023-08-24T07:23:41;99359.81;;;23.38;100.00
9289;BME280;4683;50.864;12.086;2023-08-24T07:26:12;99354.16;;;23.67;100.00
9289;BME280;4683;50.864;12.086;2023-08-24T07:28:43;99354.00;;;23.89;100.00
9289;BME280;4683;50.864;12.086;2023-08-24T07:31:15;99363.59;;;24.17;100.00
9289;BME280;4683;50.864;12.086;2023-08-24T07:33:52;99359.69;;;24.40;100.00
9289;BME280;4683;50.864;12.086;2023-08-24T07:36:23;99363.78;;;24.58;100.00
9289;BME280;4683;50.864;12.086;2023-08-24T07:38:58;99356.72;;;24.46;100.00
9289;BME280;4683;50.864;12.086;2023-08-24T07:41:34;99360.78;;;24.44;100.00
9289;BME280;4683;50.864;12.086;2023-08-24T07:44:06;99353.50;;;24.49;100.00
9289;BME280;4683;50.864;12.086;2023-08-24T07:46:55;99352.22;;;24.67;100.00
9289;BME280;4683;50.864;12.086;2023-08-24T07:49:34;99357.34;;;24.74;100.00
9289;BME280;4683;50.864;12.086;2023-08-24T07:52:07;99359.53;;;24.77;100.00
9289;BME280;4683;50.864;12.086;2023-08-24T07:54:42;99360.63;;;24.86;100.00
9289;BME280;4683;50.864;12.086;2023-08-24T07:57:21;99357.94;;;24.96;100.00
9289;BME280;4683;50.864;12.086;2023-08-24T08:00:05;99351.25;;;25.24;100.00
9289;BME280;4683;50.864;12.086;2023-08-24T08:03:01;99357.44;;;25.25;100.00
9289;BME280;4683;50.864;12.086;2023-08-24T08:05:54;99360.69;;;25.47;100.00
9289;BME280;4683;50.864;12.086;2023-08-24T08:08:24;99358.78;;;25.68;100.00
9289;BME280;4683;50.864;12.086;2023-08-24T08:11:02;99361.47;;;25.89;100.00
9289;BME280;4683;50.864;12.086;2023-08-24T08:13:32;99355.25;;;26.03;100.00
9289;BME280;4683;50.864;12.086;2023-08-24T08:16:05;99352.94;;;26.41;100.00
9289;BME280;4683;50.864;12.086;2023-08-24T08:18:36;99346.59;;;26.71;100.00
9289;BME280;4683;50.864;12.086;2023-08-24T08:21:17;99340.47;;;26.95;100.00
9289;BME280;4683;50.864;12.086;2023-08-24T08:23:48;99343.84;;;27.21;100.00
9289;BME280;4683;50.864;12.086;2023-08-24T08:26:17;99342.50;;;27.18;100.00
9289;BME280;4683;50.864;12.086;2023-08-24T08:28:49;99348.41;;;27.54;100.00
9289;BME280;4683;50.864;12.086;2023-08-24T08:31:20;99356.91;;;27.77;100.00
9289;BME280;4683;50.864;12.086;2023-08-24T08:33:55;99350.22;;;27.93;100.00
9289;BME280;4683;50.864;12.086;2023-08-24T08:36:43;99340.09;;;27.80;100.00
9289;BME280;4683;50.864;12.086;2023-08-24T08:39:20;99337.38;;;28.04;100.00
9289;BME280;4683;50.864;12.086;2023-08-24T08:42:13;99331.13;;;28.03;100.00
9289;BME280;4683;50.864;12.086;2023-08-24T08:44:47;99325.75;;;28.22;100.00
9289;BME280;4683;50.864;12.086;2023-08-24T08:47:22;99330.81;;;28.72;100.00
9289;BME280;4683;50.864;12.086;2023-08-24T08:49:53;99324.66;;;29.04;99.12
9289;BME280;4683;50.864;12.086;2023-08-24T08:52:29;99323.47;;;29.10;97.74
9289;BME280;4683;50.864;12.086;2023-08-24T08:55:02;99321.06;;;29.09;96.69
9289;BME280;4683;50.864;12.086;2023-08-24T08:57:35;99313.94;;;29.13;95.65
9289;BME280;4683;50.864;12.086;2023-08-24T09:00:10;99316.25;;;29.19;93.63
9289;BME280;4683;50.864;12.086;2023-08-24T09:02:51;99314.50;;;29.10;93.54
9289;BME280;4683;50.864;12.086;2023-08-24T09:05:33;99302.88;;;29.23;90.51
9289;BME280;4683;50.864;12.086;2023-08-24T09:08:13;99298.56;;;29.22;94.08
9289;BME280;4683;50.864;12.086;2023-08-24T09:10:47;99305.38;;;29.19;95.29
9289;BME280;4683;50.864;12.086;2023-08-24T09:13:18;99303.03;;;29.45;94.23
9289;BME280;4683;50.864;12.086;2023-08-24T09:15:53;99290.91;;;29.24;93.84
9289;BME280;4683;50.864;12.086;2023-08-24T09:18:36;99300.16;;;29.23;94.08
9289;BME280;4683;50.864;12.086;2023-08-24T09:21:12;99299.72;;;29.16;93.41
9289;BME280;4683;50.864;12.086;2023-08-24T09:23:44;99301.78;;;29.24;93.95
9289;BME280;4683;50.864;12.086;2023-08-24T09:26:28;99290.94;;;29.51;92.50
9289;BME280;4683;50.864;12.086;2023-08-24T09:29:11;99295.03;;;29.68;90.67
9289;BME280;4683;50.864;12.086;2023-08-24T09:31:43;99285.38;;;29.89;89.86
9289;BME280;4683;50.864;12.086;2023-08-24T09:34:13;99284.47;;;29.94;88.99
9289;BME280;4683;50.864;12.086;2023-08-24T09:36:44;99277.22;;;29.89;87.84
9289;BME280;4683;50.864;12.086;2023-08-24T09:39:17;99279.59;;;29.49;91.11
9289;BME280;4683;50.864;12.086;2023-08-24T09:41:53;99272.00;;;29.46;88.88
9289;BME280;4683;50.864;12.086;2023-08-24T09:44:23;99266.59;;;29.46;89.73
9289;BME280;4683;50.864;12.086;2023-08-24T09:46:59;99266.06;;;29.30;91.72
9289;BME280;4683;50.864;12.086;2023-08-24T09:49:36;99258.19;;;29.62;90.34
9289;BME280;4683;50.864;12.086;2023-08-24T09:52:09;99263.69;;;29.84;88.26
9289;BME280;4683;50.864;12.086;2023-08-24T09:54:45;99259.56;;;30.00;86.26
9289;BME280;4683;50.864;12.086;2023-08-24T09:57:25;99270.03;;;29.66;89.59
9289;BME280;4683;50.864;12.086;2023-08-24T10:00:14;99276.19;;;29.25;95.70
9289;BME280;4683;50.864;12.086;2023-08-24T10:02:54;99279.59;;;29.03;92.90
9289;BME280;4683;50.864;12.086;2023-08-24T10:05:32;99258.09;;;28.69;91.13
9289;BME280;4683;50.864;12.086;2023-08-24T10:08:05;99252.38;;;28.51;88.71
9289;BME280;4683;50.864;12.086;2023-08-24T10:10:42;99239.09;;;28.50;86.70
9289;BME280;4683;50.864;12.086;2023-08-24T10:13:38;99216.25;;;28.70;82.28
9289;BME280;4683;50.864;12.086;2023-08-24T10:16:28;99194.47;;;29.08;79.63
9289;BME280;4683;50.864;12.086;2023-08-24T10:19:06;99171.94;;;29.35;77.25
9289;BME280;4683;50.864;12.086;2023-08-24T10:21:58;99151.78;;;29.36;80.25
9289;BME280;4683;50.864;12.086;2023-08-24T10:24:38;99158.94;;;29.45;82.61
9289;BME280;4683;50.864;12.086;2023-08-24T10:27:19;99143.75;;;29.72;82.04
9289;BME280;4683;50.864;12.086;2023-08-24T10:29:59;99140.94;;;29.99;81.15
9289;BME280;4683;50.864;12.086;2023-08-24T10:32:45;99140.63;;;30.15;81.66
9289;BME280;4683;50.864;12.086;2023-08-24T10:35:36;99149.78;;;30.41;79.77
9289;BME280;4683;50.864;12.086;2023-08-24T10:38:29;99142.50;;;30.73;75.80
9289;BME280;4683;50.864;12.086;2023-08-24T10:41:05;99144.06;;;30.96;74.78
9289;BME280;4683;50.864;12.086;2023-08-24T10:43:41;99152.09;;;30.48;79.73
9289;BME280;4683;50.864;12.086;2023-08-24T10:46:44;99143.97;;;29.62;85.92
9289;BME280;4683;50.864;12.086;2023-08-24T10:49:39;99144.84;;;29.71;82.55
9289;BME280;4683;50.864;12.086;2023-08-24T10:52:23;99155.78;;;29.93;81.28
9289;BME280;4683;50.864;12.086;2023-08-24T10:55:25;99166.50;;;29.48;85.76
9289;BME280;4683;50.864;12.086;2023-08-24T10:58:20;99170.22;;;29.52;88.53
9289;BME280;4683;50.864;12.086;2023-08-24T11:00:51;99164.19;;;29.55;85.00
9289;BME280;4683;50.864;12.086;2023-08-24T11:03:35;99153.63;;;29.68;82.42
9289;BME280;4683;50.864;12.086;2023-08-24T11:06:18;99156.16;;;30.00;78.40
9289;BME280;4683;50.864;12.086;2023-08-24T11:09:04;99141.44;;;30.01;77.85
9289;BME280;4683;50.864;12.086;2023-08-24T11:11:37;99137.28;;;30.18;75.10
9289;BME280;4683;50.864;12.086;2023-08-24T11:14:18;99142.31;;;30.11;74.81
9289;BME280;4683;50.864;12.086;2023-08-24T11:17:17;99126.03;;;30.33;73.29
9289;BME280;4683;50.864;12.086;2023-08-24T11:19:52;99130.31;;;30.48;72.22
9289;BME280;4683;50.864;12.086;2023-08-24T11:22:27;99122.06;;;30.62;70.89
9289;BME280;4683;50.864;12.086;2023-08-24T11:24:58;99112.72;;;31.16;68.23
9289;BME280;4683;50.864;12.086;2023-08-24T11:27:47;99111.88;;;31.55;63.15
9289;BME280;4683;50.864;12.086;2023-08-24T11:30:23;99107.94;;;31.22;64.85
9289;BME280;4683;50.864;12.086;2023-08-24T11:32:53;99116.34;;;31.34;63.21
9289;BME280;4683;50.864;12.086;2023-08-24T11:35:28;99113.75;;;31.29;62.99
9289;BME280;4683;50.864;12.086;2023-08-24T11:38:09;99116.06;;;30.73;67.14
9289;BME280;4683;50.864;12.086;2023-08-24T11:40:43;99114.63;;;30.53;70.14
9289;BME280;4683;50.864;12.086;2023-08-24T11:43:12;99109.28;;;30.93;67.50
9289;BME280;4683;50.864;12.086;2023-08-24T11:45:52;99104.66;;;31.02;68.36
9289;BME280;4683;50.864;12.086;2023-08-24T11:48:25;99107.88;;;31.04;68.03
9289;BME280;4683;50.864;12.086;2023-08-24T11:51:09;99102.69;;;30.63;67.03
9289;BME280;4683;50.864;12.086;2023-08-24T11:53:46;99103.03;;;30.39;69.53
9289;BME280;4683;50.864;12.086;2023-08-24T11:56:15;99110.59;;;30.51;70.50
9289;BME280;4683;50.864;12.086;2023-08-24T11:59:10;99103.91;;;30.12;73.41
9289;BME280;4683;50.864;12.086;2023-08-24T12:01:44;99108.09;;;30.32;75.47
9289;BME280;4683;50.864;12.086;2023-08-24T12:04:16;99109.47;;;30.43;70.63
9289;BME280;4683;50.864;12.086;2023-08-24T12:06:48;99099.94;;;30.86;69.71
9289;BME280;4683;50.864;12.086;2023-08-24T12:09:22;99097.31;;;31.12;65.34
9289;BME280;4683;50.864;12.086;2023-08-24T12:11:56;99099.47;;;31.32;63.10
9289;BME280;4683;50.864;12.086;2023-08-24T12:14:27;99092.91;;;31.33;61.02
9289;BME280;4683;50.864;12.086;2023-08-24T12:16:57;99086.59;;;30.84;66.36
9289;BME280;4683;50.864;12.086;2023-08-24T12:19:27;99087.88;;;30.78;68.91
9289;BME280;4683;50.864;12.086;2023-08-24T12:22:02;99089.00;;;30.54;69.10
9289;BME280;4683;50.864;12.086;2023-08-24T12:24:46;99079.53;;;30.52;68.67
9289;BME280;4683;50.864;12.086;2023-08-24T12:27:18;99079.09;;;30.58;67.21
9289;BME280;4683;50.864;12.086;2023-08-24T12:29:51;99077.63;;;30.52;66.37
9289;BME280;4683;50.864;12.086;2023-08-24T12:32:55;99083.00;;;30.66;62.00
9289;BME280;4683;50.864;12.086;2023-08-24T12:35:42;99079.91;;;30.90;59.21
9289;BME280;4683;50.864;12.086;2023-08-24T12:38:12;99080.25;;;30.35;60.79
9289;BME280;4683;50.864;12.086;2023-08-24T12:40:41;99068.97;;;30.05;63.68
9289;BME280;4683;50.864;12.086;2023-08-24T12:43:10;99065.63;;;30.08;67.54
9289;BME280;4683;50.864;12.086;2023-08-24T12:45:40;99046.50;;;30.45;63.27
9289;BME280;4683;50.864;12.086;2023-08-24T12:48:14;99049.72;;;30.78;56.58
9289;BME280;4683;50.864;12.086;2023-08-24T12:50:44;99027.28;;;30.72;53.99
9289;BME280;4683;50.864;12.086;2023-08-24T12:53:14;99025.34;;;30.73;52.90
9289;BME280;4683;50.864;12.086;2023-08-24T12:55:51;99023.44;;;30.73;54.62
9289;BME280;4683;50.864;12.086;2023-08-24T12:58:21;99012.31;;;30.70;55.97
9289;BME280;4683;50.864;12.086;2023-08-24T13:00:56;99013.47;;;30.38;58.46
9289;BME280;4683;50.864;12.086;2023-08-24T13:03:25;99008.47;;;30.31;58.16
9289;BME280;4683;50.864;12.086;2023-08-24T13:05:56;99009.13;;;30.68;54.87
9289;BME280;4683;50.864;12.086;2023-08-24T13:08:31;99004.22;;;30.47;51.98
9289;BME280;4683;50.864;12.086;2023-08-24T13:11:04;98993.03;;;30.49;53.16
9289;BME280;4683;50.864;12.086;2023-08-24T13:13:32;98995.00;;;30.66;54.08
9289;BME280;4683;50.864;12.086;2023-08-24T13:16:01;98981.56;;;30.69;53.69
9289;BME280;4683;50.864;12.086;2023-08-24T13:18:34;98981.59;;;30.38;54.90
9289;BME280;4683;50.864;12.086;2023-08-24T13:21:03;98971.13;;;30.63;55.15
9289;BME280;4683;50.864;12.086;2023-08-24T13:23:36;98973.34;;;31.00;54.09
9289;BME280;4683;50.864;12.086;2023-08-24T13:26:25;98965.34;;;31.13;51.72
9289;BME280;4683;50.864;12.086;2023-08-24T13:29:00;98966.50;;;31.29;53.55
9289;BME280;4683;50.864;12.086;2023-08-24T13:31:35;98972.75;;;31.47;53.61
9289;BME280;4683;50.864;12.086;2023-08-24T13:34:08;98972.59;;;31.61;52.47
9289;BME280;4683;50.864;12.086;2023-08-24T13:36:39;98966.31;;;31.77;51.72
9289;BME280;4683;50.864;12.086;2023-08-24T13:39:09;98970.50;;;31.75;51.11
9289;BME280;4683;50.864;12.086;2023-08-24T13:41:46;98966.50;;;31.81;51.24
9289;BME280;4683;50.864;12.086;2023-08-24T13:44:15;98971.34;;;31.58;53.53